Time;durP1;ratioP1;P1;durP2;ratioP2;P2;SDS_P1;SDS_P2;PMS_P1;PMS_P2;Temp;Humidity;BMP_temperature;BMP_pressure;BME280_temperature;BME280_humidity;BME280_pressure;Samples;Min_cycle;Max_cycle;Signal;HPM_P1;HPM_P2
2021/09/13 00:02:11;;;;;;;;;;;;;;;;;;5112944;28;19928;-72
2021/09/13 00:04:38;;;;;;;;;;;;;;;;;;5113174;28;19924;-72
2021/09/13 00:07:04;;;;;;;;;;;;;;;;;;5112966;28;19930;-72
2021/09/13 00:09:30;;;;;;;;;;;;;;;;;;5112929;28;19934;-72
2021/09/13 00:11:57;;;;;;;;;;;;;;;;;;5112738;28;20293;-72
2021/09/13 00:14:23;;;;;;;;;;;;;;;;;;5112526;28;19923;-72
2021/09/13 00:16:49;;;;;;;;;;;;;;;;;;5113123;28;19923;-72
2021/09/13 00:19:16;;;;;;;;;;;;;;;;;;5112518;28;20294;-72
2021/09/13 00:21:42;;;;;;;;;;;;;;;;;;5112760;28;20026;-72
2021/09/13 00:24:09;;;;;;;;;;;;;;;;;;5113010;28;19930;-72
2021/09/13 00:26:35;;;;;;;;;;;;;;;;;;5113021;28;19993;-72
2021/09/13 00:29:02;;;;;;;;;;;;;;;;;;5116881;28;20124;-72
2021/09/13 00:31:28;;;;;;;;;;;;;;;;;;5116670;28;19992;-73
2021/09/13 00:33:54;;;;;;;;;;;;;;;;;;5117062;28;19924;-72
2021/09/13 00:36:20;;;;;;;;;;;;;;;;;;5116326;28;20283;-72
2021/09/13 00:38:47;;;;;;;;;;;;;;;;;;5116570;28;19925;-72
2021/09/13 00:41:13;;;;;;;;;;;;;;;;;;5116746;28;19923;-72
2021/09/13 00:43:39;;;;;;;;;;;;;;;;;;5116540;28;20282;-72
2021/09/13 00:46:06;;;;;;;;;;;;;;;;;;5116577;28;19924;-72
2021/09/13 00:48:32;;;;;;;;;;;;;;;;;;5116401;28;19934;-72
2021/09/13 00:50:58;;;;;;;;;;;;;;;;;;5116468;28;20286;-72
2021/09/13 00:53:25;;;;;;;;;;;;;;;;;;5116220;28;19931;-73
2021/09/13 00:55:52;;;;;;;;;;;;;;;;;;5116585;28;19949;-73
2021/09/13 00:58:18;;;;;;;;;;;;;;;;;;5115943;28;19924;-72
2021/09/13 01:00:44;;;;;;;;;;;;;;;;;;5116605;28;19924;-73
2021/09/13 01:03:10;;;;;;;;;;;;;;;;;;5116003;28;20306;-73
2021/09/13 01:05:37;;;;;;;;;;;;;;;;;;5116484;28;19931;-72
2021/09/13 01:08:03;;;;;;;;;;;;;;;;;;5116401;28;19931;-73
2021/09/13 01:10:29;;;;;;;;;;;;;;;;;;5115842;28;20639;-73
2021/09/13 01:12:56;;;;;;;;;;;;;;;;;;5115947;28;20374;-73
2021/09/13 01:15:22;;;;;;;;;;;;;;;;;;5116031;28;19928;-73
2021/09/13 01:17:48;;;;;;;;;;;;;;;;;;5116262;28;19923;-72
2021/09/13 01:20:15;;;;;;;;;;;;;;;;;;5115511;28;20415;-72
2021/09/13 01:22:41;;;;;;;;;;;;;;;;;;5115804;28;19930;-72
2021/09/13 01:25:07;;;;;;;;;;;;;;;;;;5115436;28;19985;-72
2021/09/13 01:27:34;;;;;;;;;;;;;;;;;;5115834;28;19924;-72
2021/09/13 01:30:00;;;;;;;;;;;;;;;;;;5115730;28;20293;-72
2021/09/13 01:32:26;;;;;;;;;;;;;;;;;;5115346;28;19924;-72
2021/09/13 01:34:53;;;;;;;;;;;;;;;;;;5115806;28;19928;-72
2021/09/13 01:37:19;;;;;;;;;;;;;;;;;;5115020;28;20291;-72
2021/09/13 01:39:45;;;;;;;;;;;;;;;;;;5115437;28;19928;-72
2021/09/13 01:42:11;;;;;;;;;;;;;;;;;;5115443;28;19939;-72
2021/09/13 01:44:38;;;;;;;;;;;;;;;;;;5115347;28;20393;-72
2021/09/13 01:47:04;;;;;;;;;;;;;;;;;;5115390;28;19930;-72
2021/09/13 01:49:30;;;;;;;;;;;;;;;;;;5115309;28;19934;-72
2021/09/13 01:51:57;;;;;;;;;;;;;;;;;;5115302;28;20392;-71
2021/09/13 01:54:23;;;;;;;;;;;;;;;;;;5114977;28;20022;-71
2021/09/13 01:56:50;;;;;;;;;;;;;;;;;;5115447;28;19924;-72
2021/09/13 01:59:16;;;;;;;;;;;;;;;;;;5114883;28;19930;-71
2021/09/13 02:01:42;;;;;;;;;;;;;;;;;;5115415;28;19931;-72
2021/09/13 02:04:09;;;;;;;;;;;;;;;;;;5115403;28;19934;-72
2021/09/13 02:06:36;;;;;;;;;;;;;;;;;;5115012;28;20452;-72
2021/09/13 02:09:02;;;;;;;;;;;;;;;;;;5115005;28;19923;-72
2021/09/13 02:11:28;;;;;;;;;;;;;;;;;;5114884;28;19930;-71
2021/09/13 02:13:55;;;;;;;;;;;;;;;;;;5114838;28;20305;-72
2021/09/13 02:16:21;;;;;;;;;;;;;;;;;;5114646;28;19931;-72
2021/09/13 02:18:47;;;;;;;;;;;;;;;;;;5115001;28;19924;-71
2021/09/13 02:21:13;;;;;;;;;;;;;;;;;;5114361;28;19927;-72
2021/09/13 02:23:40;;;;;;;;;;;;;;;;;;5115013;28;19924;-72
2021/09/13 02:26:06;;;;;;;;;;;;;;;;;;5114281;28;19924;-72
2021/09/13 02:28:32;;;;;;;;;;;;;;;;;;5114653;28;19930;-72
2021/09/13 02:30:59;;;;;;;;;;;;;;;;;;5114840;28;19961;-72
2021/09/13 02:33:25;;;;;;;;;;;;;;;;;;5114164;28;20405;-72
2021/09/13 02:35:51;;;;;;;;;;;;;;;;;;5114737;28;19924;-72
2021/09/13 02:38:18;;;;;;;;;;;;;;;;;;5114486;28;19923;-72
2021/09/13 02:40:44;;;;;;;;;;;;;;;;;;5114117;28;19928;-72
2021/09/13 02:43:10;;;;;;;;;;;;;;;;;;5114358;28;19924;-72
2021/09/13 02:45:37;;;;;;;;;;;;;;;;;;5114179;28;20385;-72
2021/09/13 02:48:03;;;;;;;;;;;;;;;;;;5114216;28;19923;-72
2021/09/13 02:50:29;;;;;;;;;;;;;;;;;;5113565;28;20315;-72
2021/09/13 02:52:58;;;;;;;;;;;;;;;;;;5114027;28;20379;-72
2021/09/13 02:55:24;;;;;;;;;;;;;;;;;;5114032;28;19953;-72
2021/09/13 02:57:50;;;;;;;;;;;;;;;;;;5114344;28;19930;-72
2021/09/13 03:00:17;;;;;;;;;;;;;;;;;;5113636;28;20404;-72
2021/09/13 03:02:43;;;;;;;;;;;;;;;;;;5114174;28;19923;-72
2021/09/13 03:05:10;;;;;;;;;;;;;;;;;;5113665;28;20014;-72
2021/09/13 03:07:36;;;;;;;;;;;;;;;;;;5114038;28;19923;-72
2021/09/13 03:10:02;;;;;;;;;;;;;;;;;;5113795;28;20393;-72
2021/09/13 03:12:33;;;;;;;;;;;;;;;;;;5113476;28;19931;-72
2021/09/13 03:14:59;;;;;;;;;;;;;;;;;;5113760;28;19970;-72
2021/09/13 03:17:25;;;;;;;;;;;;;;;;;;5113520;28;19931;-72
2021/09/13 03:19:52;;;;;;;;;;;;;;;;;;5113522;28;20274;-72
2021/09/13 03:22:18;;;;;;;;;;;;;;;;;;5113300;28;19924;-72
2021/09/13 03:24:44;;;;;;;;;;;;;;;;;;5113594;28;19934;-72
2021/09/13 03:27:10;;;;;;;;;;;;;;;;;;5113512;28;19924;-72
2021/09/13 03:29:37;;;;;;;;;;;;;;;;;;5113263;28;19931;-72
2021/09/13 03:32:03;;;;;;;;;;;;;;;;;;5113698;28;19923;-72
2021/09/13 03:34:29;;;;;;;;;;;;;;;;;;5113407;28;19934;-72
2021/09/13 03:36:58;;;;;;;;;;;;;;;;;;5113569;28;19969;-72
2021/09/13 03:39:25;;;;;;;;;;;;;;;;;;5112828;28;19967;-72
2021/09/13 03:41:51;;;;;;;;;;;;;;;;;;5113528;28;19924;-72
2021/09/13 03:44:17;;;;;;;;;;;;;;;;;;5113408;28;19924;-72
2021/09/13 03:46:44;;;;;;;;;;;;;;;;;;5113346;28;19923;-72
2021/09/13 03:49:10;;;;;;;;;;;;;;;;;;5113201;28;19924;-72
2021/09/13 03:51:36;;;;;;;;;;;;;;;;;;5113154;28;19924;-72
2021/09/13 03:54:02;;;;;;;;;;;;;;;;;;5113011;28;19930;-72
2021/09/13 03:56:29;;;;;;;;;;;;;;;;;;5113072;28;19931;-71
2021/09/13 03:58:55;;;;;;;;;;;;;;;;;;5112889;28;19927;-72
2021/09/13 04:01:21;;;;;;;;;;;;;;;;;;5112792;28;20007;-71
2021/09/13 04:03:49;;;;;;;;;;;;;;;;;;5113068;28;19967;-72
2021/09/13 04:06:23;;;;;;;;;;;;;;;;;;5112943;28;19974;-72
2021/09/13 04:09:08;;;;;;;;;;;;;;;;;;5112881;28;19924;-72
2021/09/13 04:11:48;;;;;;;;;;;;;;;;;;5112918;28;20338;-72
2021/09/13 04:14:15;;;;;;;;;;;;;;;;;;5112849;28;19993;-72
2021/09/13 04:16:41;;;;;;;;;;;;;;;;;;5113123;28;19955;-72
2021/09/13 04:19:07;;;;;;;;;;;;;;;;;;5112862;28;19924;-71
2021/09/13 04:21:34;;;;;;;;;;;;;;;;;;5112794;28;19924;-72
2021/09/13 04:24:00;;;;;;;;;;;;;;;;;;5112715;28;20297;-72
2021/09/13 04:26:26;;;;;;;;;;;;;;;;;;5112584;28;19930;-71
2021/09/13 04:28:53;;;;;;;;;;;;;;;;;;5112806;28;19923;-71
2021/09/13 04:31:19;;;;;;;;;;;;;;;;;;5112790;28;19923;-74
2021/09/13 04:33:45;;;;;;;;;;;;;;;;;;5112596;28;19927;-74
2021/09/13 04:36:12;;;;;;;;;;;;;;;;;;5112658;28;19930;-72
2021/09/13 04:38:38;;;;;;;;;;;;;;;;;;5112584;28;19924;-72
2021/09/13 04:41:04;;;;;;;;;;;;;;;;;;5112482;28;19923;-73
2021/09/13 04:43:31;;;;;;;;;;;;;;;;;;5112562;28;19934;-72
2021/09/13 04:45:57;;;;;;;;;;;;;;;;;;5112511;28;19924;-73
2021/09/13 04:48:24;;;;;;;;;;;;;;;;;;5112179;28;19923;-73
2021/09/13 04:50:52;;;;;;;;;;;;;;;;;;5112689;28;19924;-73
2021/09/13 04:53:18;;;;;;;;;;;;;;;;;;5112106;28;20018;-73
2021/09/13 04:55:44;;;;;;;;;;;;;;;;;;5112742;28;19931;-73
2021/09/13 04:58:11;;;;;;;;;;;;;;;;;;5112191;28;19931;-72
2021/09/13 05:00:37;;;;;;;;;;;;;;;;;;5112591;28;19924;-72
2021/09/13 05:03:03;;;;;;;;;;;;;;;;;;5112580;28;19928;-74
2021/09/13 05:05:30;;;;;;;;;;;;;;;;;;5112037;28;19928;-74
2021/09/13 05:07:56;;;;;;;;;;;;;;;;;;5112634;28;20009;-73
2021/09/13 05:10:22;;;;;;;;;;;;;;;;;;5112062;28;19924;-73
2021/09/13 05:12:49;;;;;;;;;;;;;;;;;;5113109;28;20374;-72
2021/09/13 05:15:15;;;;;;;;;;;;;;;;;;5115890;28;19931;-73
2021/09/13 05:17:41;;;;;;;;;;;;;;;;;;5116242;28;19924;-73
2021/09/13 05:20:07;;;;;;;;;;;;;;;;;;5115122;28;20382;-73
2021/09/13 05:22:34;;;;;;;;;;;;;;;;;;5114853;28;19924;-73
2021/09/13 05:25:00;;;;;;;;;;;;;;;;;;5115761;28;19924;-73
2021/09/13 05:27:26;;;;;;;;;;;;;;;;;;5115491;28;20309;-73
2021/09/13 05:29:53;;;;;;;;;;;;;;;;;;5115570;28;19930;-73
2021/09/13 05:32:19;;;;;;;;;;;;;;;;;;5115693;28;19924;-73
2021/09/13 05:34:45;;;;;;;;;;;;;;;;;;5115581;28;19924;-72
2021/09/13 05:37:11;;;;;;;;;;;;;;;;;;5115631;28;19931;-73
2021/09/13 05:39:38;;;;;;;;;;;;;;;;;;5115590;28;19923;-72
2021/09/13 05:42:04;;;;;;;;;;;;;;;;;;5115518;28;19924;-73
2021/09/13 05:44:30;;;;;;;;;;;;;;;;;;5115526;28;19928;-73
2021/09/13 05:46:57;;;;;;;;;;;;;;;;;;5115561;28;19928;-73
2021/09/13 05:49:23;;;;;;;;;;;;;;;;;;5115057;28;19924;-73
2021/09/13 05:51:52;;;;;;;;;;;;;;;;;;5115664;28;19943;-74
2021/09/13 05:54:22;;;;;;;;;;;;;;;;;;5115026;28;19924;-73
2021/09/13 05:56:49;;;;;;;;;;;;;;;;;;5115250;28;20388;-73
2021/09/13 05:59:16;;;;;;;;;;;;;;;;;;5115123;28;19924;-73
2021/09/13 06:01:42;;;;;;;;;;;;;;;;;;5114984;28;20373;-73
2021/09/13 06:04:08;;;;;;;;;;;;;;;;;;5114984;28;19931;-73
2021/09/13 06:06:34;;;;;;;;;;;;;;;;;;5115360;28;19924;-73
2021/09/13 06:09:01;;;;;;;;;;;;;;;;;;5114953;28;19923;-73
2021/09/13 06:11:27;;;;;;;;;;;;;;;;;;5114959;28;19965;-73
2021/09/13 06:13:53;;;;;;;;;;;;;;;;;;5114761;28;20301;-73
2021/09/13 06:16:20;;;;;;;;;;;;;;;;;;5114431;28;19928;-73
2021/09/13 06:18:46;;;;;;;;;;;;;;;;;;5115054;28;19924;-73
2021/09/13 06:21:12;;;;;;;;;;;;;;;;;;5114708;28;19932;-73
2021/09/13 06:23:39;;;;;;;;;;;;;;;;;;5114368;28;19923;-74
2021/09/13 06:26:05;;;;;;;;;;;;;;;;;;5113706;28;19924;-74
2021/09/13 06:28:31;;;;;;;;;;;;;;;;;;5114278;28;20314;-74
2021/09/13 06:30:57;;;;;;;;;;;;;;;;;;5114479;28;19928;-73
2021/09/13 06:33:24;;;;;;;;;;;;;;;;;;5114466;28;19946;-74
2021/09/13 06:35:50;;;;;;;;;;;;;;;;;;5114360;28;20389;-71
2021/09/13 06:38:16;;;;;;;;;;;;;;;;;;5114051;28;19924;-71
2021/09/13 06:40:43;;;;;;;;;;;;;;;;;;5114578;28;19924;-70
2021/09/13 06:43:13;;;;;;;;;;;;;;;;;;5114314;28;20294;-71
2021/09/13 06:45:45;;;;;;;;;;;;;;;;;;5114470;28;19935;-71
2021/09/13 06:48:11;;;;;;;;;;;;;;;;;;5114231;28;19931;-71
2021/09/13 06:50:37;;;;;;;;;;;;;;;;;;5114008;28;20412;-71
2021/09/13 06:53:04;;;;;;;;;;;;;;;;;;5113975;28;19924;-73
2021/09/13 06:55:30;;;;;;;;;;;;;;;;;;5114396;28;19928;-71
2021/09/13 06:57:56;;;;;;;;;;;;;;;;;;5114011;28;20286;-71
2021/09/13 07:00:23;;;;;;;;;;;;;;;;;;5113554;28;19923;-74
2021/09/13 07:02:49;;;;;;;;;;;;;;;;;;5114254;28;19930;-71
2021/09/13 07:05:15;;;;;;;;;;;;;;;;;;5113872;28;19946;-71
2021/09/13 07:07:42;;;;;;;;;;;;;;;;;;5113810;28;19931;-72
2021/09/13 07:10:08;;;;;;;;;;;;;;;;;;5113760;28;19982;-71
2021/09/13 07:12:34;;;;;;;;;;;;;;;;;;5113758;28;19924;-71
2021/09/13 07:15:00;;;;;;;;;;;;;;;;;;5113952;28;19923;-71
2021/09/13 07:17:27;;;;;;;;;;;;;;;;;;5113390;28;19930;-72
2021/09/13 07:19:53;;;;;;;;;;;;;;;;;;5113456;28;19931;-72
2021/09/13 07:22:19;;;;;;;;;;;;;;;;;;5113539;28;19931;-72
2021/09/13 07:24:46;;;;;;;;;;;;;;;;;;5113334;28;20338;-72
2021/09/13 07:27:12;;;;;;;;;;;;;;;;;;5113201;28;19924;-72
2021/09/13 07:29:38;;;;;;;;;;;;;;;;;;5113650;28;19935;-72
2021/09/13 07:32:05;;;;;;;;;;;;;;;;;;5113354;28;19924;-72
2021/09/13 07:34:31;;;;;;;;;;;;;;;;;;5113154;28;20023;-72
2021/09/13 07:36:57;;;;;;;;;;;;;;;;;;5113273;28;19923;-73
2021/09/13 07:39:24;;;;;;;;;;;;;;;;;;5112929;28;20294;-72
2021/09/13 07:41:50;;;;;;;;;;;;;;;;;;5113193;28;19923;-73
2021/09/13 07:44:16;;;;;;;;;;;;;;;;;;5113283;28;19997;-72
2021/09/13 07:46:43;;;;;;;;;;;;;;;;;;5113078;28;19923;-72
2021/09/13 07:49:09;;;;;;;;;;;;;;;;;;5113074;28;19927;-73
2021/09/13 07:51:35;;;;;;;;;;;;;;;;;;5113531;28;19930;-73
2021/09/13 07:54:01;;;;;;;;;;;;;;;;;;5113072;28;19924;-73
2021/09/13 07:56:28;;;;;;;;;;;;;;;;;;5113004;28;19924;-73
2021/09/13 07:58:54;;;;;;;;;;;;;;;;;;5113064;28;20289;-72
2021/09/13 08:01:21;;;;;;;;;;;;;;;;;;5112978;28;19928;-72
2021/09/13 08:03:47;;;;;;;;;;;;;;;;;;5113157;28;19924;-72
2021/09/13 08:06:13;;;;;;;;;;;;;;;;;;5112571;28;19931;-72
2021/09/13 08:08:40;;;;;;;;;;;;;;;;;;5113224;28;19928;-72
2021/09/13 08:11:08;;;;;;;;;;;;;;;;;;5112920;28;20401;-73
2021/09/13 08:13:39;;;;;;;;;;;;;;;;;;5112924;28;19930;-73
2021/09/13 08:16:05;;;;;;;;;;;;;;;;;;5112813;28;20318;-73
2021/09/13 08:18:31;;;;;;;;;;;;;;;;;;5112545;28;19931;-72
2021/09/13 08:20:58;;;;;;;;;;;;;;;;;;5112975;28;19924;-73
2021/09/13 08:23:24;;;;;;;;;;;;;;;;;;5112451;28;19930;-73
2021/09/13 08:25:50;;;;;;;;;;;;;;;;;;5112537;28;19923;-73
2021/09/13 08:28:20;;;;;;;;;;;;;;;;;;5112648;28;19947;-72
2021/09/13 08:30:46;;;;;;;;;;;;;;;;;;5112711;28;19924;-73
2021/09/13 08:33:12;;;;;;;;;;;;;;;;;;5112682;28;19924;-73
2021/09/13 08:35:38;;;;;;;;;;;;;;;;;;5112442;28;20298;-73
2021/09/13 08:38:05;;;;;;;;;;;;;;;;;;5112649;28;19923;-72
2021/09/13 08:40:31;;;;;;;;;;;;;;;;;;5112290;28;19924;-72
2021/09/13 08:42:57;;;;;;;;;;;;;;;;;;5112889;28;19947;-73
2021/09/13 08:45:28;;;;;;;;;;;;;;;;;;5112176;28;19931;-73
2021/09/13 08:48:03;;;;;;;;;;;;;;;;;;5113516;28;20416;-72
2021/09/13 08:50:38;;;;;;;;;;;;;;;;;;5116356;28;19975;-72
2021/09/13 08:53:05;;;;;;;;;;;;;;;;;;5116494;28;19924;-73
2021/09/13 08:55:31;;;;;;;;;;;;;;;;;;5116649;28;20014;-72
2021/09/13 08:57:59;;;;;;;;;;;;;;;;;;5116682;28;19930;-73
2021/09/13 09:00:25;;;;;;;;;;;;;;;;;;5116039;28;20462;-72
2021/09/13 09:02:52;;;;;;;;;;;;;;;;;;5116289;28;19923;-73
2021/09/13 09:05:18;;;;;;;;;;;;;;;;;;5116375;28;19924;-73
2021/09/13 09:07:44;;;;;;;;;;;;;;;;;;5116218;28;19931;-72
2021/09/13 09:10:10;;;;;;;;;;;;;;;;;;5116121;28;19923;-72
2021/09/13 09:12:37;;;;;;;;;;;;;;;;;;5116394;28;19924;-72
2021/09/13 09:15:03;;;;;;;;;;;;;;;;;;5116091;28;20378;-72
2021/09/13 09:17:29;;;;;;;;;;;;;;;;;;5116047;28;20681;-73
2021/09/13 09:19:56;;;;;;;;;;;;;;;;;;5116334;28;19946;-72
2021/09/13 09:22:22;;;;;;;;;;;;;;;;;;5115587;28;19927;-75
2021/09/13 09:24:48;;;;;;;;;;;;;;;;;;5116228;28;19930;-73
2021/09/13 09:27:15;;;;;;;;;;;;;;;;;;5115988;28;19924;-73
2021/09/13 09:29:41;;;;;;;;;;;;;;;;;;5115789;28;20292;-73
2021/09/13 09:32:07;;;;;;;;;;;;;;;;;;5115703;28;19924;-73
2021/09/13 09:34:34;;;;;;;;;;;;;;;;;;5115700;28;19924;-73
2021/09/13 09:37:00;;;;;;;;;;;;;;;;;;5115552;28;19927;-73
2021/09/13 09:39:27;;;;;;;;;;;;;;;;;;5115269;28;19970;-73
2021/09/13 09:41:55;;;;;;;;;;;;;;;;;;5115757;28;19924;-73
2021/09/13 09:44:21;;;;;;;;;;;;;;;;;;5115565;28;19930;-73
2021/09/13 09:46:47;;;;;;;;;;;;;;;;;;5115707;28;19931;-73
2021/09/13 09:49:15;;;;;;;;;;;;;;;;;;5115176;28;20405;-73
2021/09/13 09:51:41;;;;;;;;;;;;;;;;;;5115293;28;20019;-73
2021/09/13 09:54:07;;;;;;;;;;;;;;;;;;5115310;28;19959;-73
2021/09/13 09:56:34;;;;;;;;;;;;;;;;;;5115247;28;19930;-73
2021/09/13 09:59:00;;;;;;;;;;;;;;;;;;5115036;28;20443;-73
2021/09/13 10:01:26;;;;;;;;;;;;;;;;;;5114831;28;19930;-73
2021/09/13 10:03:52;;;;;;;;;;;;;;;;;;5115474;28;19924;-73
2021/09/13 10:06:20;;;;;;;;;;;;;;;;;;5114702;28;20370;-72
2021/09/13 10:08:46;;;;;;;;;;;;;;;;;;5115352;28;19924;-73
2021/09/13 10:11:12;;;;;;;;;;;;;;;;;;5115105;28;19924;-73
2021/09/13 10:13:39;;;;;;;;;;;;;;;;;;5115025;28;19923;-73
2021/09/13 10:16:05;;;;;;;;;;;;;;;;;;5114808;28;19924;-73
2021/09/13 10:18:31;;;;;;;;;;;;;;;;;;5114908;28;20011;-73
2021/09/13 10:20:58;;;;;;;;;;;;;;;;;;5114640;28;19930;-73
2021/09/13 10:23:24;;;;;;;;;;;;;;;;;;5114556;28;19931;-73
2021/09/13 10:25:50;;;;;;;;;;;;;;;;;;5114865;28;19951;-73
2021/09/13 10:28:17;;;;;;;;;;;;;;;;;;5114322;28;19924;-72
2021/09/13 10:30:43;;;;;;;;;;;;;;;;;;5114816;28;19923;-73
2021/09/13 10:33:09;;;;;;;;;;;;;;;;;;5114480;28;20404;-73
2021/09/13 10:35:35;;;;;;;;;;;;;;;;;;5114869;28;19923;-74
2021/09/13 10:38:02;;;;;;;;;;;;;;;;;;5114754;28;19930;-71
2021/09/13 10:40:31;;;;;;;;;;;;;;;;;;5114199;28;19924;-71
2021/09/13 10:42:58;;;;;;;;;;;;;;;;;;5114082;28;20328;-72
2021/09/13 10:45:25;;;;;;;;;;;;;;;;;;5114357;28;19931;-72
2021/09/13 10:47:51;;;;;;;;;;;;;;;;;;5114525;28;20001;-72
2021/09/13 10:50:17;;;;;;;;;;;;;;;;;;5114042;28;19923;-72
2021/09/13 10:52:44;;;;;;;;;;;;;;;;;;5114108;28;20427;-72
2021/09/13 10:55:11;;;;;;;;;;;;;;;;;;5114194;28;19935;-72
2021/09/13 10:57:38;;;;;;;;;;;;;;;;;;5113949;28;19924;-71
2021/09/13 11:00:04;;;;;;;;;;;;;;;;;;5114342;28;19938;-72
2021/09/13 11:02:30;;;;;;;;;;;;;;;;;;5113618;28;20404;-72
2021/09/13 11:04:56;;;;;;;;;;;;;;;;;;5113913;28;19930;-72
2021/09/13 11:07:23;;;;;;;;;;;;;;;;;;5113946;28;19931;-72
2021/09/13 11:09:49;;;;;;;;;;;;;;;;;;5113758;28;20304;-72
2021/09/13 11:12:15;;;;;;;;;;;;;;;;;;5113114;28;20393;-72
2021/09/13 11:14:45;;;;;;;;;;;;;;;;;;5113650;28;19923;-72
2021/09/13 11:17:11;;;;;;;;;;;;;;;;;;5113836;28;19927;-74
2021/09/13 11:19:37;;;;;;;;;;;;;;;;;;5113986;28;19928;-74
2021/09/13 11:22:04;;;;;;;;;;;;;;;;;;5113537;28;20301;-74
2021/09/13 11:24:30;;;;;;;;;;;;;;;;;;5113231;28;19932;-74
2021/09/13 11:26:56;;;;;;;;;;;;;;;;;;5113396;28;19924;-73
2021/09/13 11:29:23;;;;;;;;;;;;;;;;;;5113238;28;19924;-73
2021/09/13 11:31:49;;;;;;;;;;;;;;;;;;5113674;28;19924;-73
2021/09/13 11:34:15;;;;;;;;;;;;;;;;;;5113193;28;20362;-74
2021/09/13 11:36:42;;;;;;;;;;;;;;;;;;5113267;28;19938;-74
2021/09/13 11:39:09;;;;;;;;;;;;;;;;;;5113564;28;19931;-73
2021/09/13 11:41:35;;;;;;;;;;;;;;;;;;5113577;28;19924;-73
2021/09/13 11:44:02;;;;;;;;;;;;;;;;;;5113234;28;20389;-74
2021/09/13 11:46:28;;;;;;;;;;;;;;;;;;5112848;28;19930;-73
2021/09/13 11:48:55;;;;;;;;;;;;;;;;;;5113110;28;20054;-74
2021/09/13 11:51:21;;;;;;;;;;;;;;;;;;5113200;28;19928;-73
2021/09/13 11:53:47;;;;;;;;;;;;;;;;;;5113145;28;19931;-74
2021/09/13 11:56:14;;;;;;;;;;;;;;;;;;5113076;28;19930;-74
2021/09/13 11:58:40;;;;;;;;;;;;;;;;;;5113391;28;20341;-73
2021/09/13 12:01:06;;;;;;;;;;;;;;;;;;5112850;28;19930;-74
2021/09/13 12:03:32;;;;;;;;;;;;;;;;;;5113036;28;19931;-74
2021/09/13 12:05:59;;;;;;;;;;;;;;;;;;5112789;28;20373;-73
2021/09/13 12:08:25;;;;;;;;;;;;;;;;;;5113057;28;19931;-73
2021/09/13 12:10:51;;;;;;;;;;;;;;;;;;5113099;28;20447;-73
2021/09/13 12:13:18;;;;;;;;;;;;;;;;;;5112585;28;19930;-73
2021/09/13 12:15:48;;;;;;;;;;;;;;;;;;5112744;28;20019;-73
2021/09/13 12:18:16;;;;;;;;;;;;;;;;;;5112879;28;19924;-73
2021/09/13 12:20:42;;;;;;;;;;;;;;;;;;5112992;28;19931;-74
2021/09/13 12:23:08;;;;;;;;;;;;;;;;;;5114066;28;20255;-73
2021/09/13 12:25:35;;;;;;;;;;;;;;;;;;5116608;28;19930;-73
2021/09/13 12:28:01;;;;;;;;;;;;;;;;;;5117268;28;19934;-74
2021/09/13 12:30:27;;;;;;;;;;;;;;;;;;5116689;28;20382;-74
2021/09/13 12:32:54;;;;;;;;;;;;;;;;;;5116847;28;19931;-73
2021/09/13 12:35:21;;;;;;;;;;;;;;;;;;5116553;28;19971;-74
2021/09/13 12:37:47;;;;;;;;;;;;;;;;;;5117039;28;19924;-72
2021/09/13 12:40:13;;;;;;;;;;;;;;;;;;5116513;28;19924;-72
2021/09/13 12:42:39;;;;;;;;;;;;;;;;;;5116940;28;19931;-72
2021/09/13 12:45:06;;;;;;;;;;;;;;;;;;5116555;28;20374;-73
2021/09/13 12:47:32;;;;;;;;;;;;;;;;;;5116303;28;19928;-73
2021/09/13 12:49:58;;;;;;;;;;;;;;;;;;5116757;28;19930;-72
2021/09/13 12:52:25;;;;;;;;;;;;;;;;;;5116292;28;20389;-73
2021/09/13 12:54:51;;;;;;;;;;;;;;;;;;5116387;28;20382;-72
2021/09/13 12:57:17;;;;;;;;;;;;;;;;;;5116480;28;19930;-72
2021/09/13 12:59:44;;;;;;;;;;;;;;;;;;5116608;28;19990;-72
2021/09/13 13:02:10;;;;;;;;;;;;;;;;;;5116045;28;19935;-72
2021/09/13 13:04:36;;;;;;;;;;;;;;;;;;5119464;28;19923;-72
2021/09/13 13:07:03;;;;;;;;;;;;;;;;;;5116084;28;20305;-72
2021/09/13 13:09:29;;;;;;;;;;;;;;;;;;5115922;28;19924;-72
2021/09/13 13:11:55;;;;;;;;;;;;;;;;;;5116452;28;19924;-72
2021/09/13 13:14:22;;;;;;;;;;;;;;;;;;5115699;28;20275;-72
2021/09/13 13:16:48;;;;;;;;;;;;;;;;;;5115881;28;19923;-72
2021/09/13 13:19:14;;;;;;;;;;;;;;;;;;5116043;28;19923;-72
2021/09/13 13:21:41;;;;;;;;;;;;;;;;;;5116136;28;19932;-72
2021/09/13 13:24:07;;;;;;;;;;;;;;;;;;5116164;28;20000;-72
2021/09/13 13:26:33;;;;;;;;;;;;;;;;;;5115403;28;20006;-72
2021/09/13 13:29:00;;;;;;;;;;;;;;;;;;5115816;28;20396;-72
2021/09/13 13:31:26;;;;;;;;;;;;;;;;;;5115422;28;19931;-72
2021/09/13 13:33:52;;;;;;;;;;;;;;;;;;5115328;28;19924;-72
2021/09/13 13:36:19;;;;;;;;;;;;;;;;;;5115410;28;19924;-73
2021/09/13 13:38:45;;;;;;;;;;;;;;;;;;5115578;28;20014;-72
2021/09/13 13:41:11;;;;;;;;;;;;;;;;;;5115566;28;19924;-72
2021/09/13 13:43:37;;;;;;;;;;;;;;;;;;5115397;28;20386;-72
2021/09/13 13:46:04;;;;;;;;;;;;;;;;;;5115636;28;19934;-72
2021/09/13 13:48:30;;;;;;;;;;;;;;;;;;5115521;28;19954;-72
2021/09/13 13:50:57;;;;;;;;;;;;;;;;;;5115417;28;19938;-72
2021/09/13 13:53:23;;;;;;;;;;;;;;;;;;5115403;28;19924;-72
2021/09/13 13:55:49;;;;;;;;;;;;;;;;;;5115284;28;19931;-72
2021/09/13 13:58:15;;;;;;;;;;;;;;;;;;5115209;28;19923;-72
2021/09/13 14:00:42;;;;;;;;;;;;;;;;;;5115569;28;19924;-72
2021/09/13 14:03:08;;;;;;;;;;;;;;;;;;5115050;28;20370;-72
2021/09/13 14:05:34;;;;;;;;;;;;;;;;;;5114905;28;19930;-72
2021/09/13 14:08:01;;;;;;;;;;;;;;;;;;5115346;28;19931;-73
2021/09/13 14:10:27;;;;;;;;;;;;;;;;;;5114675;28;20439;-72
2021/09/13 14:12:53;;;;;;;;;;;;;;;;;;5114975;28;19928;-72
2021/09/13 14:15:20;;;;;;;;;;;;;;;;;;5114902;28;19931;-72
2021/09/13 14:17:46;;;;;;;;;;;;;;;;;;5114836;28;20369;-73
2021/09/13 14:20:12;;;;;;;;;;;;;;;;;;5114570;28;19934;-72
2021/09/13 14:22:39;;;;;;;;;;;;;;;;;;5114955;28;19923;-73
2021/09/13 14:25:05;;;;;;;;;;;;;;;;;;5114441;28;20374;-73
2021/09/13 14:27:31;;;;;;;;;;;;;;;;;;5114746;28;19994;-72
2021/09/13 14:29:57;;;;;;;;;;;;;;;;;;5114890;28;19951;-72
2021/09/13 14:32:24;;;;;;;;;;;;;;;;;;5114258;28;19935;-73
2021/09/13 14:34:50;;;;;;;;;;;;;;;;;;5114539;28;19930;-73
2021/09/13 14:37:16;;;;;;;;;;;;;;;;;;5114468;28;19924;-73
2021/09/13 14:39:43;;;;;;;;;;;;;;;;;;5114609;28;20006;-73
2021/09/13 14:42:09;;;;;;;;;;;;;;;;;;5114307;28;19931;-73
2021/09/13 14:44:35;;;;;;;;;;;;;;;;;;5114193;28;20275;-73
2021/09/13 14:47:02;;;;;;;;;;;;;;;;;;5113431;28;20445;-73
2021/09/13 14:49:28;;;;;;;;;;;;;;;;;;5113776;28;19924;-73
2021/09/13 14:51:54;;;;;;;;;;;;;;;;;;5114409;28;19928;-73
2021/09/13 14:54:21;;;;;;;;;;;;;;;;;;5114190;28;19925;-73
2021/09/13 14:56:47;;;;;;;;;;;;;;;;;;5113987;28;19923;-73
2021/09/13 14:59:15;;;;;;;;;;;;;;;;;;5114212;28;19924;-72
2021/09/13 15:01:41;;;;;;;;;;;;;;;;;;5114278;28;20032;-73
2021/09/13 15:04:08;;;;;;;;;;;;;;;;;;5113923;28;19930;-73
2021/09/13 15:06:35;;;;;;;;;;;;;;;;;;5113727;28;19927;-72
2021/09/13 15:09:02;;;;;;;;;;;;;;;;;;5114146;28;19931;-73
2021/09/13 15:11:28;;;;;;;;;;;;;;;;;;5113744;28;19923;-72
2021/09/13 15:13:54;;;;;;;;;;;;;;;;;;5113699;28;19934;-72
2021/09/13 15:16:21;;;;;;;;;;;;;;;;;;5113802;28;19924;-73
2021/09/13 15:18:48;;;;;;;;;;;;;;;;;;5113613;28;20408;-73
2021/09/13 15:21:14;;;;;;;;;;;;;;;;;;5113351;28;19928;-73
2021/09/13 15:23:40;;;;;;;;;;;;;;;;;;5113735;28;19928;-72
2021/09/13 15:26:07;;;;;;;;;;;;;;;;;;5113394;28;19923;-71
2021/09/13 15:28:33;;;;;;;;;;;;;;;;;;5113607;28;19924;-71
2021/09/13 15:30:59;;;;;;;;;;;;;;;;;;5113525;28;20293;-72
2021/09/13 15:33:26;;;;;;;;;;;;;;;;;;5113070;28;19927;-71
2021/09/13 15:35:53;;;;;;;;;;;;;;;;;;5113637;28;19927;-71
2021/09/13 15:38:19;;;;;;;;;;;;;;;;;;5113036;28;19931;-71
2021/09/13 15:40:45;;;;;;;;;;;;;;;;;;5113411;28;19924;-71
2021/09/13 15:43:12;;;;;;;;;;;;;;;;;;5113238;28;19924;-71
2021/09/13 15:45:38;;;;;;;;;;;;;;;;;;5113322;28;19924;-72
2021/09/13 15:48:04;;;;;;;;;;;;;;;;;;5113428;28;19988;-71
2021/09/13 15:50:31;;;;;;;;;;;;;;;;;;5113023;28;19928;-72
2021/09/13 15:52:57;;;;;;;;;;;;;;;;;;5113359;28;19923;-72
2021/09/13 15:55:23;;;;;;;;;;;;;;;;;;5113199;28;19924;-72
2021/09/13 15:57:50;;;;;;;;;;;;;;;;;;5112783;28;20416;-72
2021/09/13 16:00:16;;;;;;;;;;;;;;;;;;5113067;28;19924;-71
2021/09/13 16:02:42;;;;;;;;;;;;;;;;;;5113152;28;19924;-71
2021/09/13 16:05:08;;;;;;;;;;;;;;;;;;5112939;28;19924;-72
2021/09/13 16:07:35;;;;;;;;;;;;;;;;;;5112986;28;19935;-71
2021/09/13 16:10:01;;;;;;;;;;;;;;;;;;5112958;28;19931;-71
2021/09/13 16:12:27;;;;;;;;;;;;;;;;;;5112862;28;19932;-72
2021/09/13 16:14:54;;;;;;;;;;;;;;;;;;5113073;28;20302;-72
2021/09/13 16:17:20;;;;;;;;;;;;;;;;;;5112585;28;19923;-72
2021/09/13 16:19:46;;;;;;;;;;;;;;;;;;5112788;28;19973;-72
2021/09/13 16:22:13;;;;;;;;;;;;;;;;;;5112616;28;19924;-72
2021/09/13 16:24:41;;;;;;;;;;;;;;;;;;5112798;28;20378;-72
2021/09/13 16:27:07;;;;;;;;;;;;;;;;;;5113020;28;19928;-71
2021/09/13 16:29:34;;;;;;;;;;;;;;;;;;5112364;28;19931;-71
2021/09/13 16:32:00;;;;;;;;;;;;;;;;;;5112521;28;19973;-72
2021/09/13 16:34:27;;;;;;;;;;;;;;;;;;5113034;28;19924;-71
2021/09/13 16:36:53;;;;;;;;;;;;;;;;;;5112854;28;19924;-72
2021/09/13 16:39:19;;;;;;;;;;;;;;;;;;5112420;28;19924;-72
2021/09/13 16:41:45;;;;;;;;;;;;;;;;;;5112743;28;19934;-72